BFJ weather

Bijie Feixiong Airport
Bijie, Guizhou Province, China

Public forecast

Using degrees Celsius for public forecast. Weather courtesy of forecast.io.

Closest aviation weather report (METAR) to Bijie Feixiong Airport

Report is more than 6 hours old.

Closest report is Anshun Huangguoshu Airport, 64.1 nm (118.8 km) SSE. Retrieved 2011/06/02 03:00 UTC (9 years ago):

ZUAS 020300Z AUTO 18004MPS 3200 SCT006 BKN007 17/16 Q1016

Closest aviation forecast (TAF) to Bijie Feixiong Airport

Closest forecast is Longdongbao Airport, 83.5 nm (154.7 km) ESE. Retrieved 2020/02/19 12:00 UTC (4 hours ago):

TAF ZUGY 190901Z 1912/2012 18003MPS 6000 BKN015 BKN033 TX15/2007Z TN07/1922Z